Time;durP1;ratioP1;P1;durP2;ratioP2;P2;SDS_P1;SDS_P2;PMS_P1;PMS_P2;Temp;Humidity;BMP_temperature;BMP_pressure;BME280_temperature;BME280_humidity;BME280_pressure;Samples;Min_cycle;Max_cycle;Signal;HPM_P1;HPM_P2
2022/10/11 00:00:29;;;;;;;4.85;0.63;;;;;;;6.30;56.30;102155.63;5023758;28;20042;-66
2022/10/11 00:02:56;;;;;;;7.32;0.68;;;;;;;6.27;56.12;102159.06;5025478;28;20041;-66
2022/10/11 00:05:22;;;;;;;14.13;0.98;;;;;;;6.28;55.83;102160.84;5024602;28;20037;-67
2022/10/11 00:07:47;;;;;;;12.32;1.17;;;;;;;6.16;56.65;102163.41;5023185;28;20040;-66
2022/10/11 00:10:12;;;;;;;7.75;1.20;;;;;;;6.17;56.62;102164.25;5027384;28;20040;-67
2022/10/11 00:12:38;;;;;;;5.70;1.05;;;;;;;6.36;55.88;102168.59;5026931;28;20051;-67
2022/10/11 00:15:04;;;;;;;8.68;0.70;;;;;;;6.37;55.84;102175.50;5027306;28;20075;-67
2022/10/11 00:17:31;;;;;;;2.53;0.20;;;;;;;6.27;55.67;102179.84;5025305;28;20042;-67
2022/10/11 00:19:56;;;;;;;14.63;1.38;;;;;;;6.16;55.40;102170.34;5024722;28;20040;-66
2022/10/11 00:22:22;;;;;;;3.67;0.38;;;;;;;6.11;55.59;102185.91;5019482;28;20045;-66
2022/10/11 00:24:47;;;;;;;3.67;0.30;;;;;;;6.04;55.69;102185.06;5016293;28;20032;-67
2022/10/11 00:27:12;;;;;;;8.10;1.05;;;;;;;6.03;55.63;102180.69;5026345;28;20033;-67
2022/10/11 00:29:38;;;;;;;2.00;0.65;;;;;;;6.02;55.63;102184.19;5033152;28;20053;-67
2022/10/11 00:32:04;;;;;;;7.70;0.55;;;;;;;5.98;55.59;102187.63;5010527;28;20041;-66
2022/10/11 00:34:30;;;;;;;4.35;0.45;;;;;;;5.97;55.51;102191.09;5026158;28;20064;-70
2022/10/11 00:36:55;;;;;;;12.80;1.75;;;;;;;5.91;55.73;102185.91;5025755;28;20065;-68
2022/10/11 00:39:21;;;;;;;6.50;1.33;;;;;;;5.88;55.67;102198.88;5012815;28;20501;-69
2022/10/11 00:41:48;;;;;;;4.28;0.40;;;;;;;5.86;55.64;102187.66;5031364;28;20037;-70
2022/10/11 00:44:15;;;;;;;4.35;0.52;;;;;;;5.80;56.26;102198.00;5027379;28;20060;-67
2022/10/11 00:46:46;;;;;;;4.93;0.77;;;;;;;5.81;56.04;102194.53;5026209;28;20037;-67
2022/10/11 00:49:25;;;;;;;5.47;0.67;;;;;;;5.86;55.78;102198.03;5023080;28;20029;-71
2022/10/11 00:51:55;;;;;;;3.88;0.60;;;;;;;5.78;55.51;102200.59;5025848;28;20029;-66
2022/10/11 00:54:24;;;;;;;12.48;1.40;;;;;;;5.75;55.82;102191.94;5026702;28;20028;-71
2022/10/11 00:56:56;;;;;;;5.65;0.38;;;;;;;5.67;55.97;102203.16;5022718;28;20032;-71
2022/10/11 00:59:29;;;;;;;8.57;0.70;;;;;;;5.55;55.97;102194.53;5026965;28;20489;-71
2022/10/11 01:01:55;;;;;;;8.35;0.68;;;;;;;5.52;56.14;102200.53;5029949;28;20283;-71
2022/10/11 01:04:21;;;;;;;6.15;0.47;;;;;;;5.53;56.35;102204.88;5028794;28;20669;-72
2022/10/11 01:06:49;;;;;;;3.13;0.40;;;;;;;5.57;55.96;102210.91;5030339;28;20537;-71
2022/10/11 01:09:16;;;;;;;7.50;0.98;;;;;;;5.50;56.07;102209.19;5036153;28;20539;-72
2022/10/11 01:11:42;;;;;;;3.47;0.50;;;;;;;5.46;55.67;102216.09;5030255;28;20083;-72
2022/10/11 01:14:39;;;;;;;2.95;0.50;;;;;;;5.42;56.77;102209.16;5025440;28;20044;-71
2022/10/11 01:17:25;;;;;;;2.28;0.50;;;;;;;5.52;56.23;102218.69;5028685;28;20923;-71
2022/10/11 01:20:06;;;;;;;1.75;0.32;;;;;;;5.52;56.46;102208.31;5026123;28;20056;-72
2022/10/11 01:22:48;;;;;;;5.37;0.60;;;;;;;5.50;56.07;102220.41;5027306;28;20442;-71
2022/10/11 01:25:26;;;;;;;4.77;0.60;;;;;;;5.37;56.99;102208.28;5030362;28;20889;-71
2022/10/11 01:28:13;;;;;;;3.55;0.75;;;;;;;5.45;56.31;102217.81;5026713;28;20040;-72
2022/10/11 01:30:40;;;;;;;6.47;0.82;;;;;;;5.42;56.46;102219.53;5027155;28;20116;-71
2022/10/11 01:33:17;;;;;;;6.75;0.60;;;;;;;5.40;56.29;102218.66;5026367;28;22842;-71
2022/10/11 01:36:06;;;;;;;6.78;0.60;;;;;;;5.32;56.94;102220.38;5032055;28;20036;-72
2022/10/11 01:38:49;;;;;;;5.07;0.50;;;;;;;5.35;56.38;102226.44;5025898;28;20037;-69
2022/10/11 01:41:21;;;;;;;4.72;0.68;;;;;;;5.38;56.38;102230.75;5042290;28;20127;-69
2022/10/11 01:43:47;;;;;;;;;;;;;;;5.33;55.79;102233.34;5027172;28;20037;-74
2022/10/11 01:46:13;;;;;;;2.17;0.30;;;;;;;5.28;55.87;102231.56;5029535;28;19917;-73
2022/10/11 01:48:49;;;;;;;2.80;0.20;;;;;;;5.23;56.58;102224.66;5025208;28;20038;-72
2022/10/11 01:51:18;;;;;;;5.05;0.90;;;;;;;5.19;56.12;102222.03;5029218;28;20048;-71
2022/10/11 01:54:17;;;;;;;2.33;0.75;;;;;;;5.14;56.11;102224.59;5035352;28;20052;-70
2022/10/11 01:57:02;;;;;;;4.25;0.47;;;;;;;5.07;56.02;102227.19;5024892;28;20033;-70
2022/10/11 01:59:57;;;;;;;3.80;0.40;;;;;;;5.01;55.76;102230.59;5031683;28;20084;-71
2022/10/11 02:02:30;;;;;;;5.10;0.82;;;;;;;5.05;56.15;102227.16;5042894;28;20051;-71
2022/10/11 02:05:02;;;;;;;4.15;0.35;;;;;;;5.06;56.14;102231.50;5028407;28;20115;-67
2022/10/11 02:08:09;;;;;;;3.25;0.30;;;;;;;5.07;56.25;102233.22;5026148;28;20049;-68
2022/10/11 02:11:00;;;;;;;6.07;0.30;;;;;;;4.67;57.73;102235.56;5018791;28;20670;-67
2022/10/11 02:13:34;;;;;;;3.50;0.57;;;;;;;4.96;57.33;102238.34;5024452;28;20044;-70
2022/10/11 02:16:05;;;;;;;7.10;0.65;;;;;;;5.06;56.83;102239.28;5028886;28;20044;-70
2022/10/11 02:18:38;;;;;;;4.75;0.60;;;;;;;5.10;56.51;102230.66;5024386;28;20503;-71
2022/10/11 02:21:07;;;;;;;3.28;0.60;;;;;;;5.05;56.71;102232.34;5030202;28;20060;-71
2022/10/11 02:23:42;;;;;;;3.08;0.90;;;;;;;5.08;56.31;102237.56;5025045;28;20509;-70
2022/10/11 02:26:11;;;;;;;3.78;0.30;;;;;;;5.16;56.79;102240.19;5028672;28;20393;-71
2022/10/11 02:28:40;;;;;;;3.50;0.50;;;;;;;5.14;56.21;102240.16;5027941;28;20037;-67
2022/10/11 02:31:08;;;;;;;5.18;0.20;;;;;;;5.13;56.64;102238.44;5044353;28;20119;-69
2022/10/11 02:33:43;;;;;;;13.82;0.95;;;;;;;5.19;56.52;102245.34;5025096;28;20122;-69
2022/10/11 02:36:15;;;;;;;6.05;0.65;;;;;;;5.20;56.66;102247.09;5029918;28;20025;-69
2022/10/11 02:38:49;;;;;;;8.63;0.30;;;;;;;5.08;57.09;102247.03;5025761;28;20041;-69
2022/10/11 02:41:28;;;;;;;7.25;0.73;;;;;;;5.14;56.83;102254.84;5029323;28;20115;-66
2022/10/11 02:44:12;;;;;;;5.53;0.30;;;;;;;5.13;56.87;102254.00;5024326;28;20131;-66
2022/10/11 02:46:39;;;;;;;5.72;0.32;;;;;;;5.18;56.50;102252.28;5027467;28;20037;-65
2022/10/11 02:49:06;;;;;;;7.00;0.20;;;;;;;5.18;56.20;102260.06;5028540;28;20672;-66
2022/10/11 02:51:32;;;;;;;4.35;0.75;;;;;;;5.12;56.25;102266.94;5026553;28;20033;-65
2022/10/11 02:53:58;;;;;;;4.10;0.50;;;;;;;5.04;56.29;102259.13;5024264;28;20040;-66
2022/10/11 02:56:23;;;;;;;5.60;0.20;;;;;;;5.12;56.12;102259.16;5027599;28;20033;-65
2022/10/11 02:58:49;;;;;;;6.03;0.60;;;;;;;5.09;55.76;102265.19;5023563;28;20043;-66
2022/10/11 03:01:14;;;;;;;8.73;0.60;;;;;;;4.99;56.38;102263.44;5029035;28;20044;-67
2022/10/11 03:03:40;;;;;;;3.67;0.10;;;;;;;4.99;56.01;102268.63;5025177;28;20052;-67
2022/10/11 03:06:06;;;;;;;6.68;0.47;;;;;;;4.91;56.36;102270.28;5027273;28;20043;-66
2022/10/11 03:08:31;;;;;;;3.80;0.40;;;;;;;4.91;56.09;102265.09;5026612;28;20059;-67
2022/10/11 03:10:57;;;;;;;7.20;0.57;;;;;;;4.85;57.25;102271.06;5028065;28;20064;-66
2022/10/11 03:13:22;;;;;;;2.83;0.50;;;;;;;4.86;57.19;102266.78;5026671;28;20140;-69
2022/10/11 03:15:49;;;;;;;5.63;0.52;;;;;;;4.96;56.59;102273.75;5028132;28;20044;-68
2022/10/11 03:18:15;;;;;;;2.55;0.40;;;;;;;5.02;56.33;102266.03;5026711;28;20045;-69
2022/10/11 03:20:41;;;;;;;2.67;0.43;;;;;;;4.96;55.94;102271.16;5026376;28;20031;-68
2022/10/11 03:23:06;;;;;;;4.63;0.50;;;;;;;4.93;55.65;102284.13;5025751;28;20053;-68
2022/10/11 03:25:31;;;;;;;11.30;0.98;;;;;;;4.87;56.36;102278.84;5026433;28;20075;-68
2022/10/11 03:27:57;;;;;;;6.22;0.47;;;;;;;4.88;55.82;102288.38;5026962;28;20053;-69
2022/10/11 03:30:22;;;;;;;3.40;0.40;;;;;;;4.84;55.83;102292.66;5027362;28;20116;-68
2022/10/11 03:32:48;;;;;;;7.93;0.50;;;;;;;4.73;56.27;102287.41;5026178;28;21366;-67
2022/10/11 03:35:15;;;;;;;5.82;0.40;;;;;;;4.84;55.95;102290.94;5028892;28;20466;-68
2022/10/11 03:37:40;;;;;;;3.88;0.47;;;;;;;4.68;57.35;102288.25;5031461;28;20430;-68
2022/10/11 03:40:07;;;;;;;5.78;0.93;;;;;;;4.58;58.06;102290.72;5028127;28;20029;-67
2022/10/11 03:42:34;;;;;;;7.10;1.35;;;;;;;4.88;57.14;102291.88;5026169;28;20191;-69
2022/10/11 03:45:03;;;;;;;3.40;0.30;;;;;;;4.94;56.57;102297.06;5027196;28;20037;-68
2022/10/11 03:47:30;;;;;;;5.20;0.57;;;;;;;4.81;56.23;102292.63;5028972;28;20034;-69
2022/10/11 03:49:55;;;;;;;4.65;0.38;;;;;;;4.76;56.16;102297.78;5023803;28;20037;-69
2022/10/11 03:52:21;;;;;;;1.20;0.35;;;;;;;4.79;55.96;102299.53;5025799;28;20056;-68
2022/10/11 03:54:47;;;;;;;4.32;0.57;;;;;;;4.72;56.37;102306.41;5022296;28;20041;-67
2022/10/11 03:57:13;;;;;;;3.03;0.60;;;;;;;4.73;56.37;102302.09;5027211;28;20528;-69
2022/10/11 03:59:38;;;;;;;4.38;0.40;;;;;;;4.74;56.19;102303.81;5025718;28;20036;-68
2022/10/11 04:02:03;;;;;;;2.90;0.50;;;;;;;4.74;56.49;102303.81;5025358;28;21090;-69
2022/10/11 04:04:29;;;;;;;7.72;0.43;;;;;;;4.67;57.29;102308.06;5032882;28;20808;-68
2022/10/11 04:06:54;;;;;;;5.32;1.20;;;;;;;4.77;57.61;102312.47;5026116;28;20243;-67
2022/10/11 04:09:20;;;;;;;4.57;0.35;;;;;;;4.90;57.14;102305.69;5025337;28;20539;-69
2022/10/11 04:11:45;;;;;;;15.43;1.38;;;;;;;5.04;57.54;102310.97;5024335;28;20123;-67
2022/10/11 04:14:11;;;;;;;8.88;0.40;;;;;;;5.03;57.65;102306.63;5024213;28;20669;-67
2022/10/11 04:16:37;;;;;;;10.75;0.57;;;;;;;5.09;57.56;102317.03;5023981;28;20468;-68
2022/10/11 04:19:03;;;;;;;5.43;0.47;;;;;;;5.26;57.11;102319.72;5033441;28;20045;-71
2022/10/11 04:21:29;;;;;;;6.50;0.85;;;;;;;4.94;57.82;102325.56;5027058;28;20083;-69
2022/10/11 04:23:54;;;;;;;5.00;0.35;;;;;;;5.11;57.02;102323.09;5014177;28;20044;-68
2022/10/11 04:26:19;;;;;;;3.17;0.55;;;;;;;4.70;58.24;102323.66;5026845;28;20076;-68
2022/10/11 04:28:45;;;;;;;3.63;0.98;;;;;;;4.69;58.00;102337.44;5024319;28;20182;-68
2022/10/11 04:31:10;;;;;;;9.98;0.47;;;;;;;4.68;58.22;102338.31;5025209;28;20040;-68
2022/10/11 04:33:36;;;;;;;5.53;0.40;;;;;;;4.84;57.58;102327.19;5023607;28;20650;-69
2022/10/11 04:36:01;;;;;;;13.35;0.65;;;;;;;4.86;57.31;102328.94;5028724;28;20040;-67
2022/10/11 04:38:27;;;;;;;6.28;1.17;;;;;;;4.83;57.29;102346.19;5016682;28;20094;-67
2022/10/11 04:40:52;;;;;;;4.57;0.80;;;;;;;4.89;57.00;102341.94;5028330;28;20574;-68
2022/10/11 04:43:18;;;;;;;3.58;0.30;;;;;;;4.69;57.38;102347.81;5036669;28;20221;-68
2022/10/11 04:45:44;;;;;;;2.83;0.57;;;;;;;4.89;56.75;102344.53;5030205;28;20668;-66
2022/10/11 04:48:09;;;;;;;4.43;0.80;;;;;;;4.73;57.17;102341.78;5030513;28;20426;-70
2022/10/11 04:50:35;;;;;;;5.88;0.68;;;;;;;4.62;57.80;102346.03;5027735;28;20046;-70
2022/10/11 04:53:06;;;;;;;11.73;0.70;;;;;;;4.43;58.79;102350.16;5036125;28;20080;-70
2022/10/11 04:55:31;;;;;;;5.90;0.45;;;;;;;4.86;57.59;102347.09;5029522;28;20112;-67
2022/10/11 04:57:57;;;;;;;7.75;1.17;;;;;;;4.98;57.67;102349.78;5027536;28;20567;-69
2022/10/11 05:00:22;;;;;;;8.07;0.82;;;;;;;5.16;57.17;102351.63;5027650;28;20482;-68
2022/10/11 05:02:47;;;;;;;12.20;0.60;;;;;;;5.04;57.70;102361.06;5027889;28;20047;-69
2022/10/11 05:05:16;;;;;;;8.10;0.70;;;;;;;5.39;57.07;102355.25;5029303;28;20036;-68
2022/10/11 05:07:42;;;;;;;7.57;0.57;;;;;;;5.47;56.50;102365.63;5028249;28;20041;-68
2022/10/11 05:10:08;;;;;;;7.03;0.47;;;;;;;5.40;56.77;102363.88;5028320;28;20032;-67
2022/10/11 05:12:34;;;;;;;11.50;0.82;;;;;;;5.32;57.20;102371.59;5034158;28;20048;-68
2022/10/11 05:14:59;;;;;;;7.65;1.05;;;;;;;5.37;57.43;102374.22;5028330;28;20043;-67
2022/10/11 05:17:25;;;;;;;5.75;0.70;;;;;;;5.73;56.57;102377.88;5029086;28;20040;-68
2022/10/11 05:19:51;;;;;;;6.55;0.60;;;;;;;5.45;56.95;102373.41;5028647;28;20043;-68
2022/10/11 05:22:17;;;;;;;6.85;0.65;;;;;;;5.54;56.51;102372.59;5034110;28;20084;-69
2022/10/11 05:24:42;;;;;;;8.80;0.63;;;;;;;5.61;56.09;102383.84;5028783;28;20087;-68
2022/10/11 05:27:08;;;;;;;8.20;0.40;;;;;;;5.32;57.27;102383.69;5024751;28;20048;-68
2022/10/11 05:29:33;;;;;;;9.10;0.93;;;;;;;5.52;56.28;102387.25;5027602;28;20073;-68
2022/10/11 05:31:59;;;;;;;5.20;0.68;;;;;;;5.48;56.58;102387.25;5031247;28;20064;-68
2022/10/11 05:34:25;;;;;;;6.20;0.32;;;;;;;5.52;55.65;102395.03;5028238;28;20038;-72
2022/10/11 05:36:50;;;;;;;8.48;1.58;;;;;;;5.63;55.25;102402.88;5027974;28;20041;-66
2022/10/11 05:39:16;;;;;;;7.80;1.10;;;;;;;5.55;55.81;102399.41;5027278;28;20072;-70
2022/10/11 05:41:41;;;;;;;4.40;0.20;;;;;;;5.39;55.63;102409.69;5027541;28;20120;-66
2022/10/11 05:44:07;;;;;;;8.98;0.90;;;;;;;5.49;55.40;102407.16;5028289;28;20039;-72
2022/10/11 05:46:33;;;;;;;4.07;0.32;;;;;;;5.43;55.46;102410.56;5028340;28;20492;-66
2022/10/11 05:48:58;;;;;;;2.58;0.75;;;;;;;5.37;55.12;102410.50;5026343;28;20030;-67
2022/10/11 05:51:23;;;;;;;5.10;0.80;;;;;;;5.18;55.96;102417.31;5029412;28;20083;-66
2022/10/11 05:53:49;;;;;;;4.35;0.52;;;;;;;5.17;56.32;102419.03;5025880;28;20302;-72
2022/10/11 05:56:25;;;;;;;8.63;1.08;;;;;;;5.23;56.04;102423.38;5036844;28;20103;-72
2022/10/11 05:58:51;;;;;;;5.47;0.40;;;;;;;5.28;55.68;102431.19;5033210;28;20383;-68
2022/10/11 06:01:24;;;;;;;5.55;0.85;;;;;;;5.19;55.55;102434.59;5031871;28;20039;-72
2022/10/11 06:03:50;;;;;;;4.80;0.57;;;;;;;5.11;55.91;102431.09;5032184;28;20621;-79
2022/10/11 06:06:17;;;;;;;1.90;0.50;;;;;;;5.13;56.27;102429.38;5029075;28;20029;-68
2022/10/11 06:08:43;;;;;;;3.53;0.70;;;;;;;5.04;56.61;102428.44;5029072;28;20037;-68
2022/10/11 06:11:14;;;;;;;8.02;0.85;;;;;;;5.14;56.37;102439.72;5023901;28;20060;-68
2022/10/11 06:13:39;;;;;;;3.15;1.00;;;;;;;5.29;55.67;102428.63;5024467;28;20041;-68
2022/10/11 06:16:05;;;;;;;3.20;0.52;;;;;;;5.18;56.24;102428.53;5027663;28;20079;-69
2022/10/11 06:18:31;;;;;;;7.45;1.30;;;;;;;5.16;56.30;102438.03;5027600;28;20040;-71
2022/10/11 06:20:58;;;;;;;4.43;0.50;;;;;;;5.43;55.87;102436.50;5027037;28;20060;-69
2022/10/11 06:23:23;;;;;;;7.00;0.70;;;;;;;5.50;55.26;102438.25;5017360;28;20038;-70
2022/10/11 06:26:00;;;;;;;7.13;0.85;;;;;;;5.75;54.98;102444.47;5029676;28;20469;-70
2022/10/11 06:28:27;;;;;;;10.63;0.85;;;;;;;5.81;54.75;102441.03;5044090;28;20037;-69
2022/10/11 06:30:54;;;;;;;7.10;0.80;;;;;;;5.85;55.19;102445.38;5028282;28;20113;-70
2022/10/11 06:33:19;;;;;;;8.85;1.00;;;;;;;6.03;54.43;102440.25;5028245;28;20627;-70
2022/10/11 06:35:45;;;;;;;13.95;0.85;;;;;;;6.15;53.94;102448.97;5026793;28;20142;-69
2022/10/11 06:38:10;;;;;;;4.28;0.90;;;;;;;6.37;54.24;102450.78;5023061;28;20056;-71
2022/10/11 06:40:36;;;;;;;8.13;0.70;;;;;;;6.22;53.73;102454.19;5026208;28;20508;-70
2022/10/11 06:43:02;;;;;;;3.05;0.60;;;;;;;6.16;54.15;102448.97;5025214;28;20606;-70
2022/10/11 06:45:27;;;;;;;7.93;0.60;;;;;;;6.39;53.64;102449.06;5025741;28;20037;-69
2022/10/11 06:47:53;;;;;;;7.90;0.47;;;;;;;6.63;53.66;102455.19;5027493;28;20073;-71
2022/10/11 06:50:18;;;;;;;2.72;0.40;;;;;;;6.62;53.39;102469.03;5026718;28;20039;-69
2022/10/11 06:52:45;;;;;;;8.50;0.77;;;;;;;8.36;51.99;102461.88;5029708;28;20042;-70
2022/10/11 06:55:11;;;;;;;12.23;1.25;;;;;;;10.26;46.14;102466.25;5026803;28;20037;-71
2022/10/11 06:57:36;;;;;;;5.60;0.63;;;;;;;11.91;44.87;102461.81;5027457;28;20052;-71
2022/10/11 07:00:04;;;;;;;4.90;0.80;;;;;;;12.47;41.13;102463.22;5031276;28;20037;-70
2022/10/11 07:02:29;;;;;;;2.92;0.40;;;;;;;13.00;39.70;102462.00;5029108;28;20033;-70
2022/10/11 07:04:55;;;;;;;5.10;0.52;;;;;;;13.58;37.79;102468.38;5026254;28;20079;-70
2022/10/11 07:07:20;;;;;;;7.40;0.98;;;;;;;14.16;38.50;102471.09;5026305;28;20045;-71
2022/10/11 07:09:46;;;;;;;6.22;0.90;;;;;;;14.44;34.92;102473.78;5028671;28;20040;-70
2022/10/11 07:12:11;;;;;;;3.78;0.30;;;;;;;15.00;35.46;102477.28;5034177;28;20037;-72
2022/10/11 07:14:37;;;;;;;3.95;0.65;;;;;;;14.86;36.00;102480.38;5028436;28;20045;-70
2022/10/11 07:17:02;;;;;;;2.63;1.48;;;;;;;15.90;33.90;102479.38;5025245;28;20484;-70
2022/10/11 07:19:28;;;;;;;5.18;0.77;;;;;;;15.83;31.67;102475.25;5027779;28;20373;-71
2022/10/11 07:21:53;;;;;;;6.25;0.75;;;;;;;16.86;29.00;102478.38;5033499;28;20063;-71
2022/10/11 07:24:19;;;;;;;7.80;0.80;;;;;;;17.09;30.53;102470.34;5023796;28;20149;-70
2022/10/11 07:26:44;;;;;;;4.60;0.80;;;;;;;16.82;31.34;102480.25;5028652;28;20048;-71
2022/10/11 07:29:11;;;;;;;3.28;0.60;;;;;;;17.92;30.36;102476.44;5025326;28;20044;-71
2022/10/11 07:31:38;;;;;;;2.78;0.52;;;;;;;18.73;28.39;102483.16;5031300;28;20028;-68
2022/10/11 07:34:04;;;;;;;2.88;0.47;;;;;;;17.86;29.48;102488.16;5024851;28;20033;-71
2022/10/11 07:36:29;;;;;;;5.85;0.80;;;;;;;16.90;29.87;102486.09;5023405;28;20040;-71
2022/10/11 07:38:55;;;;;;;5.50;0.88;;;;;;;15.89;32.88;102487.38;5020787;28;20182;-71
2022/10/11 07:41:20;;;;;;;6.10;0.80;;;;;;;15.82;33.44;102494.66;5025015;28;20505;-71
2022/10/11 07:43:48;;;;;;;5.18;0.60;;;;;;;16.29;32.47;102488.53;5024182;28;20553;-70
2022/10/11 07:46:14;;;;;;;4.60;0.45;;;;;;;16.83;32.71;102496.06;5025184;28;20029;-72
2022/10/11 07:48:40;;;;;;;9.88;0.65;;;;;;;17.92;30.50;102492.31;5023062;28;20029;-70
2022/10/11 07:51:13;;;;;;;4.45;0.88;;;;;;;16.78;31.88;102491.91;5027342;28;20037;-70
2022/10/11 07:53:41;;;;;;;8.73;1.20;;;;;;;14.36;35.20;102499.44;5033613;28;20037;-70
2022/10/11 07:56:09;;;;;;;8.77;0.75;;;;;;;12.65;38.22;102503.03;5027344;28;20156;-70
2022/10/11 07:58:34;;;;;;;5.90;1.08;;;;;;;11.83;40.63;102502.13;5022166;28;20045;-70
2022/10/11 08:01:00;;;;;;;11.27;1.25;;;;;;;11.25;41.95;102508.38;5027021;28;20053;-70
2022/10/11 08:03:25;;;;;;;10.75;1.45;;;;;;;11.05;42.15;102512.19;5025019;28;20048;-70
2022/10/11 08:05:51;;;;;;;4.78;1.23;;;;;;;10.81;43.48;102513.44;5023520;28;20037;-69
2022/10/11 08:08:17;;;;;;;9.18;0.75;;;;;;;10.51;44.74;102529.53;5009313;28;20501;-69
2022/10/11 08:10:43;;;;;;;5.28;0.93;;;;;;;10.43;44.52;102516.56;5025364;28;20041;-70
2022/10/11 08:13:09;;;;;;;6.93;0.93;;;;;;;10.29;45.19;102523.72;5031210;28;20067;-69
2022/10/11 08:15:35;;;;;;;7.05;1.10;;;;;;;10.34;44.96;102522.75;5031799;28;20029;-70
2022/10/11 08:18:00;;;;;;;8.75;1.42;;;;;;;10.70;44.68;102519.69;5027910;28;20041;-69
2022/10/11 08:20:25;;;;;;;8.20;0.80;;;;;;;10.56;44.61;102523.34;5016407;28;20158;-70
2022/10/11 08:22:51;;;;;;;13.75;0.98;;;;;;;10.32;45.32;102534.13;5030256;28;20162;-70
2022/10/11 08:25:16;;;;;;;5.05;0.73;;;;;;;10.43;44.99;102532.25;5027199;28;20136;-70
2022/10/11 08:27:42;;;;;;;5.68;0.73;;;;;;;10.64;45.07;102531.09;5026639;28;20057;-70
2022/10/11 08:30:08;;;;;;;9.60;0.82;;;;;;;10.95;43.88;102528.94;5027337;28;20600;-70
2022/10/11 08:32:33;;;;;;;8.40;1.17;;;;;;;10.87;44.88;102532.56;5022289;28;20717;-69
2022/10/11 08:34:59;;;;;;;8.27;0.63;;;;;;;11.14;44.37;102536.50;5013313;28;20437;-70
2022/10/11 08:37:24;;;;;;;12.50;1.05;;;;;;;11.00;44.01;102534.09;5026778;28;20469;-70
2022/10/11 08:39:50;;;;;;;8.70;1.38;;;;;;;10.93;44.15;102541.19;5030157;28;20237;-70
2022/10/11 08:42:27;;;;;;;9.02;0.90;;;;;;;10.18;45.93;102542.13;5026757;28;20422;-70
2022/10/11 08:44:59;;;;;;;5.25;0.65;;;;;;;11.03;45.39;102544.50;5028420;28;20029;-69
2022/10/11 08:47:41;;;;;;;9.50;0.77;;;;;;;10.45;45.75;102546.16;5024365;28;20041;-70
2022/10/11 08:50:17;;;;;;;4.03;1.08;;;;;;;10.45;46.62;102548.78;5026894;28;20029;-69
2022/10/11 08:53:00;;;;;;;14.00;0.82;;;;;;;10.66;46.28;102545.03;5025785;28;20148;-69
2022/10/11 08:55:49;;;;;;;9.48;1.45;;;;;;;10.97;46.31;102550.72;5035811;28;20041;-69
2022/10/11 08:58:20;;;;;;;5.20;0.50;;;;;;;11.22;45.32;102555.56;5033335;28;20341;-70
2022/10/11 09:00:49;;;;;;;15.40;1.75;;;;;;;11.34;45.02;102559.72;5025866;28;20041;-69
2022/10/11 09:03:20;;;;;;;6.45;0.85;;;;;;;10.91;45.98;102553.41;5027672;28;20037;-70
2022/10/11 09:06:04;;;;;;;11.00;1.30;;;;;;;11.22;45.28;102555.56;5016722;28;20146;-69
2022/10/11 09:08:48;;;;;;;5.70;0.55;;;;;;;11.11;46.21;102562.72;5030065;28;20041;-69
2022/10/11 09:11:51;;;;;;;8.88;1.27;;;;;;;11.52;45.45;102553.31;5023615;28;20056;-69
2022/10/11 09:14:20;;;;;;;6.13;0.57;;;;;;;12.02;44.35;102556.78;5025177;28;20370;-68
2022/10/11 09:17:05;;;;;;;9.15;0.60;;;;;;;12.18;43.24;102557.34;5026827;28;20041;-69
2022/10/11 09:19:31;;;;;;;5.18;0.77;;;;;;;11.42;44.82;102569.19;5024671;28;20028;-69
2022/10/11 09:22:02;;;;;;;7.47;0.73;;;;;;;11.63;45.45;102572.31;5024729;28;20048;-70
2022/10/11 09:24:55;;;;;;;4.05;1.25;;;;;;;11.76;44.80;102568.59;5029182;28;20028;-69
2022/10/11 09:27:58;;;;;;;8.10;0.65;;;;;;;12.54;42.85;102566.22;5031021;28;20521;-69
2022/10/11 09:30:24;;;;;;;7.72;0.98;;;;;;;13.28;41.84;102575.06;5022873;28;23347;-69
2022/10/11 09:33:07;;;;;;;10.52;1.92;;;;;;;14.61;39.67;102565.34;5013172;28;20437;-69
2022/10/11 09:35:39;;;;;;;6.80;1.10;;;;;;;14.81;39.60;102567.38;5022498;28;20029;-69
2022/10/11 09:38:17;;;;;;;9.50;1.15;;;;;;;14.76;40.22;102564.03;5024899;28;20140;-69
2022/10/11 09:41:05;;;;;;;10.75;2.70;;;;;;;15.61;36.79;102563.94;5025790;28;20076;-69
2022/10/11 09:43:31;;;;;;;14.55;0.95;;;;;;;15.27;38.15;102571.22;5025238;28;20144;-69
2022/10/11 09:45:56;;;;;;;6.82;0.50;;;;;;;15.22;36.72;102570.50;5026154;28;20084;-70
2022/10/11 09:48:26;;;;;;;11.27;1.13;;;;;;;16.20;35.54;102574.16;5026762;28;20048;-71
2022/10/11 09:50:57;;;;;;;9.38;0.57;;;;;;;15.90;35.63;102576.94;5024035;28;20101;-70
2022/10/11 09:53:54;;;;;;;11.25;0.75;;;;;;;16.18;35.77;102570.72;5033575;28;20095;-70
2022/10/11 09:56:21;;;;;;;11.52;1.02;;;;;;;16.29;34.79;102571.19;5026547;28;20033;-71
2022/10/11 09:58:47;;;;;;;5.53;0.50;;;;;;;16.12;35.58;102565.66;5025825;28;20095;-70
2022/10/11 10:01:23;;;;;;;11.45;1.20;;;;;;;16.27;37.28;102572.16;5024060;28;20493;-70
2022/10/11 10:04:12;;;;;;;9.10;1.00;;;;;;;16.58;36.25;102571.84;5026822;28;20072;-71
2022/10/11 10:06:39;;;;;;;5.50;0.43;;;;;;;15.44;35.50;102570.66;5023340;28;20520;-70
2022/10/11 10:09:25;;;;;;;8.43;0.70;;;;;;;16.49;35.22;102574.81;5025365;28;20017;-70
2022/10/11 10:11:53;;;;;;;6.28;0.40;;;;;;;16.64;35.45;102574.22;5024951;28;20053;-71
2022/10/11 10:14:27;;;;;;;6.18;1.08;;;;;;;16.41;34.00;102585.69;5015258;28;20030;-70
2022/10/11 10:17:25;;;;;;;5.25;0.88;;;;;;;16.57;35.26;102578.03;5025059;28;20033;-69
2022/10/11 10:19:54;;;;;;;8.68;1.17;;;;;;;16.87;35.04;102576.03;4977662;28;20553;-70
2022/10/11 10:22:26;;;;;;;7.88;1.10;;;;;;;17.14;34.30;102579.31;5030698;28;20041;-70
2022/10/11 10:24:53;;;;;;;5.82;0.73;;;;;;;17.05;34.28;102579.69;5023586;28;20116;-70
2022/10/11 10:27:27;;;;;;;9.43;0.60;;;;;;;16.97;35.95;102576.50;5026380;28;20045;-70
2022/10/11 10:30:12;;;;;;;3.38;0.52;;;;;;;16.85;33.24;102577.84;5032697;28;20120;-70
2022/10/11 10:32:43;;;;;;;8.50;1.25;;;;;;;16.99;35.58;102580.78;5023809;28;20045;-70
2022/10/11 10:35:26;;;;;;;5.43;0.60;;;;;;;17.03;34.93;102584.19;5023681;28;20504;-70
2022/10/11 10:38:04;;;;;;;7.93;0.55;;;;;;;17.35;34.06;102582.84;5022817;28;20069;-70
2022/10/11 10:40:51;;;;;;;4.90;0.50;;;;;;;17.43;33.51;102579.91;5024490;28;20106;-70
2022/10/11 10:43:20;;;;;;;8.88;0.90;;;;;;;17.52;33.88;102581.31;5022023;28;20086;-69
2022/10/11 10:46:10;;;;;;;3.58;0.45;;;;;;;15.07;36.00;102585.00;5015707;28;20037;-71
2022/10/11 10:48:44;;;;;;;7.57;0.82;;;;;;;15.99;35.60;102591.59;5022701;28;20067;-71
2022/10/11 10:51:25;;;;;;;4.85;0.30;;;;;;;15.75;36.46;102588.03;5024767;28;20039;-70
2022/10/11 10:54:04;;;;;;;5.43;0.73;;;;;;;16.35;34.84;102583.25;5023414;28;20049;-70
2022/10/11 10:56:58;;;;;;;8.02;0.70;;;;;;;16.81;33.65;102585.03;5014559;28;20029;-70
2022/10/11 10:59:38;;;;;;;4.20;0.80;;;;;;;17.33;33.01;102582.06;5023766;28;20045;-67
2022/10/11 11:02:18;;;;;;;12.13;0.60;;;;;;;17.45;33.18;102585.97;5023822;28;20048;-69
2022/10/11 11:04:52;;;;;;;7.18;0.40;;;;;;;15.90;34.75;102576.09;5021694;28;20037;-68
2022/10/11 11:07:32;;;;;;;5.65;1.85;;;;;;;14.56;37.67;102578.66;5025123;28;20132;-69
2022/10/11 11:10:10;;;;;;;6.05;0.30;;;;;;;14.96;36.59;102582.69;5021642;28;20030;-72
2022/10/11 11:12:43;;;;;;;8.20;0.45;;;;;;;14.99;36.79;102581.72;5041442;28;20040;-69
2022/10/11 11:15:11;;;;;;;3.38;0.22;;;;;;;15.59;37.17;102591.22;5033291;28;20075;-69
2022/10/11 11:18:30;;;;;;;3.65;0.30;;;;;;;15.15;36.53;102587.38;5031459;28;20041;-68
2022/10/11 11:21:04;;;;;;;5.72;0.30;;;;;;;15.02;37.01;102586.91;4986393;28;20071;-70
2022/10/11 11:23:37;;;;;;;8.70;0.30;;;;;;;15.07;36.64;102590.25;5024746;28;20045;-70
2022/10/11 11:26:29;;;;;;;3.33;0.60;;;;;;;14.95;37.34;102594.16;5037847;28;20041;-69
2022/10/11 11:28:57;;;;;;;6.15;1.20;;;;;;;13.13;41.30;102594.66;5032847;28;20075;-70
2022/10/11 11:31:31;;;;;;;6.28;0.65;;;;;;;12.82;42.69;102591.88;5029074;28;20044;-71
2022/10/11 11:34:04;;;;;;;6.32;0.30;;;;;;;12.66;43.37;102604.44;5030324;28;20187;-70
2022/10/11 11:36:46;;;;;;;4.82;0.50;;;;;;;12.07;44.27;102599.53;5030452;28;20033;-70
2022/10/11 11:39:20;;;;;;;5.55;0.75;;;;;;;12.31;44.23;102603.41;5029772;28;20072;-70
2022/10/11 11:41:48;;;;;;;4.20;0.50;;;;;;;12.33;44.19;102596.38;5034727;28;20095;-69
2022/10/11 11:44:14;;;;;;;9.05;0.45;;;;;;;12.43;43.13;102594.44;5028359;28;20029;-71